sensor_id;sensor_type;location;lat;lon;timestamp;temperature;humidity
45803;DHT22;31504;51.716;9.184;2023-10-19T00:00:32;19.20;55.40
45803;DHT22;31504;51.716;9.184;2023-10-19T00:03:36;19.20;55.40
45803;DHT22;31504;51.716;9.184;2023-10-19T00:06:37;19.20;56.10
45803;DHT22;31504;51.716;9.184;2023-10-19T00:09:40;19.20;55.40
45803;DHT22;31504;51.716;9.184;2023-10-19T00:12:40;19.10;55.40
45803;DHT22;31504;51.716;9.184;2023-10-19T00:15:42;19.20;55.50
45803;DHT22;31504;51.716;9.184;2023-10-19T00:18:51;19.20;56.10
45803;DHT22;31504;51.716;9.184;2023-10-19T00:21:53;19.10;55.50
45803;DHT22;31504;51.716;9.184;2023-10-19T00:25:02;19.10;55.40
45803;DHT22;31504;51.716;9.184;2023-10-19T00:28:04;19.10;55.50
45803;DHT22;31504;51.716;9.184;2023-10-19T00:31:06;19.10;55.60
45803;DHT22;31504;51.716;9.184;2023-10-19T00:34:09;19.20;55.50
45803;DHT22;31504;51.716;9.184;2023-10-19T00:37:13;19.20;55.50
45803;DHT22;31504;51.716;9.184;2023-10-19T00:40:19;19.20;55.50
45803;DHT22;31504;51.716;9.184;2023-10-19T00:43:34;19.10;55.50
45803;DHT22;31504;51.716;9.184;2023-10-19T00:46:36;19.10;55.60
45803;DHT22;31504;51.716;9.184;2023-10-19T00:49:42;19.10;55.60
45803;DHT22;31504;51.716;9.184;2023-10-19T00:52:44;19.10;55.60
45803;DHT22;31504;51.716;9.184;2023-10-19T00:55:49;19.10;55.50
45803;DHT22;31504;51.716;9.184;2023-10-19T00:58:53;19.10;55.60
45803;DHT22;31504;51.716;9.184;2023-10-19T01:01:56;19.10;55.50
45803;DHT22;31504;51.716;9.184;2023-10-19T01:05:16;19.10;55.50
45803;DHT22;31504;51.716;9.184;2023-10-19T01:08:21;19.10;55.60
45803;DHT22;31504;51.716;9.184;2023-10-19T01:11:31;19.10;55.60
45803;DHT22;31504;51.716;9.184;2023-10-19T01:14:34;19.10;55.60
45803;DHT22;31504;51.716;9.184;2023-10-19T01:17:35;19.10;55.50
45803;DHT22;31504;51.716;9.184;2023-10-19T01:20:39;19.00;55.50
45803;DHT22;31504;51.716;9.184;2023-10-19T01:23:50;19.00;55.40
45803;DHT22;31504;51.716;9.184;2023-10-19T01:26:51;19.00;55.30
45803;DHT22;31504;51.716;9.184;2023-10-19T01:29:54;19.00;55.30
45803;DHT22;31504;51.716;9.184;2023-10-19T01:32:55;19.00;55.30
45803;DHT22;31504;51.716;9.184;2023-10-19T01:35:57;19.00;55.30
45803;DHT22;31504;51.716;9.184;2023-10-19T01:39:16;19.00;55.30
45803;DHT22;31504;51.716;9.184;2023-10-19T01:42:19;19.00;55.20
45803;DHT22;31504;51.716;9.184;2023-10-19T01:45:19;19.00;55.20
45803;DHT22;31504;51.716;9.184;2023-10-19T01:48:20;19.00;55.20
45803;DHT22;31504;51.716;9.184;2023-10-19T01:51:23;19.00;55.20
45803;DHT22;31504;51.716;9.184;2023-10-19T01:54:25;19.00;55.20
45803;DHT22;31504;51.716;9.184;2023-10-19T01:57:26;19.00;55.20
45803;DHT22;31504;51.716;9.184;2023-10-19T02:00:26;19.00;55.20
45803;DHT22;31504;51.716;9.184;2023-10-19T02:03:26;19.00;55.10
45803;DHT22;31504;51.716;9.184;2023-10-19T02:06:33;19.00;55.10
45803;DHT22;31504;51.716;9.184;2023-10-19T02:09:37;18.90;55.10
45803;DHT22;31504;51.716;9.184;2023-10-19T02:12:39;19.00;55.10
45803;DHT22;31504;51.716;9.184;2023-10-19T02:15:42;19.00;55.10
45803;DHT22;31504;51.716;9.184;2023-10-19T02:18:43;19.00;55.10
45803;DHT22;31504;51.716;9.184;2023-10-19T02:21:44;18.90;55.10
45803;DHT22;31504;51.716;9.184;2023-10-19T02:24:48;18.90;55.10
45803;DHT22;31504;51.716;9.184;2023-10-19T02:27:48;18.90;55.10
45803;DHT22;31504;51.716;9.184;2023-10-19T02:30:49;18.90;55.10
45803;DHT22;31504;51.716;9.184;2023-10-19T02:33:51;18.90;55.10
45803;DHT22;31504;51.716;9.184;2023-10-19T02:36:52;18.90;55.10
45803;DHT22;31504;51.716;9.184;2023-10-19T02:39:52;18.90;55.10
45803;DHT22;31504;51.716;9.184;2023-10-19T02:42:53;18.90;55.10
45803;DHT22;31504;51.716;9.184;2023-10-19T02:45:53;18.90;55.10
45803;DHT22;31504;51.716;9.184;2023-10-19T02:48:55;18.90;55.10
45803;DHT22;31504;51.716;9.184;2023-10-19T02:51:56;18.90;55.10
45803;DHT22;31504;51.716;9.184;2023-10-19T02:55:03;18.90;55.10
45803;DHT22;31504;51.716;9.184;2023-10-19T02:58:04;18.90;55.10
45803;DHT22;31504;51.716;9.184;2023-10-19T03:01:11;18.90;55.10
45803;DHT22;31504;51.716;9.184;2023-10-19T03:04:12;18.90;55.10
45803;DHT22;31504;51.716;9.184;2023-10-19T03:07:12;18.90;55.10
45803;DHT22;31504;51.716;9.184;2023-10-19T03:10:13;18.90;55.10
45803;DHT22;31504;51.716;9.184;2023-10-19T03:13:24;18.90;55.20
45803;DHT22;31504;51.716;9.184;2023-10-19T03:16:24;18.90;55.20
45803;DHT22;31504;51.716;9.184;2023-10-19T03:19:24;18.90;55.20
45803;DHT22;31504;51.716;9.184;2023-10-19T03:22:25;18.90;55.20
45803;DHT22;31504;51.716;9.184;2023-10-19T03:25:27;18.90;55.20
45803;DHT22;31504;51.716;9.184;2023-10-19T03:28:46;18.90;55.20
45803;DHT22;31504;51.716;9.184;2023-10-19T03:31:47;18.90;55.20
45803;DHT22;31504;51.716;9.184;2023-10-19T03:34:47;18.90;55.20
45803;DHT22;31504;51.716;9.184;2023-10-19T03:37:49;18.90;55.20
45803;DHT22;31504;51.716;9.184;2023-10-19T03:40:52;18.90;55.20
45803;DHT22;31504;51.716;9.184;2023-10-19T03:43:59;18.90;55.20
45803;DHT22;31504;51.716;9.184;2023-10-19T03:47:01;18.90;55.20
45803;DHT22;31504;51.716;9.184;2023-10-19T03:50:05;18.90;55.30
45803;DHT22;31504;51.716;9.184;2023-10-19T03:53:07;18.90;55.30
45803;DHT22;31504;51.716;9.184;2023-10-19T03:56:07;18.90;55.30
45803;DHT22;31504;51.716;9.184;2023-10-19T03:59:11;18.90;55.30
45803;DHT22;31504;51.716;9.184;2023-10-19T04:02:12;18.90;55.30
45803;DHT22;31504;51.716;9.184;2023-10-19T04:05:22;18.90;55.30
45803;DHT22;31504;51.716;9.184;2023-10-19T04:08:26;18.90;55.40
45803;DHT22;31504;51.716;9.184;2023-10-19T04:11:27;18.90;55.30
45803;DHT22;31504;51.716;9.184;2023-10-19T04:14:32;18.90;55.90
45803;DHT22;31504;51.716;9.184;2023-10-19T04:17:33;18.90;55.40
45803;DHT22;31504;51.716;9.184;2023-10-19T04:20:39;18.90;55.40
45803;DHT22;31504;51.716;9.184;2023-10-19T04:23:48;18.90;55.40
45803;DHT22;31504;51.716;9.184;2023-10-19T04:26:49;18.90;56.10
45803;DHT22;31504;51.716;9.184;2023-10-19T04:29:49;18.90;55.50
45803;DHT22;31504;51.716;9.184;2023-10-19T04:32:50;18.90;55.50
45803;DHT22;31504;51.716;9.184;2023-10-19T04:35:51;18.90;55.50
45803;DHT22;31504;51.716;9.184;2023-10-19T04:38:56;18.90;55.60
45803;DHT22;31504;51.716;9.184;2023-10-19T04:41:56;18.90;55.70
45803;DHT22;31504;51.716;9.184;2023-10-19T04:44:56;18.90;55.80
45803;DHT22;31504;51.716;9.184;2023-10-19T04:47:57;18.90;55.90
45803;DHT22;31504;51.716;9.184;2023-10-19T04:50:57;18.90;56.00
45803;DHT22;31504;51.716;9.184;2023-10-19T04:53:58;18.90;56.10
45803;DHT22;31504;51.716;9.184;2023-10-19T04:56:58;18.90;56.10
45803;DHT22;31504;51.716;9.184;2023-10-19T05:00:00;18.90;56.20
45803;DHT22;31504;51.716;9.184;2023-10-19T05:03:01;18.90;56.20
45803;DHT22;31504;51.716;9.184;2023-10-19T05:06:02;18.90;56.20
45803;DHT22;31504;51.716;9.184;2023-10-19T05:09:02;18.90;56.30
45803;DHT22;31504;51.716;9.184;2023-10-19T05:12:03;18.90;56.30
45803;DHT22;31504;51.716;9.184;2023-10-19T05:15:04;18.90;56.30
45803;DHT22;31504;51.716;9.184;2023-10-19T05:18:06;18.90;56.30
45803;DHT22;31504;51.716;9.184;2023-10-19T05:21:06;18.90;56.40
45803;DHT22;31504;51.716;9.184;2023-10-19T05:24:07;19.00;56.50
45803;DHT22;31504;51.716;9.184;2023-10-19T05:27:07;19.00;56.70
45803;DHT22;31504;51.716;9.184;2023-10-19T05:30:09;19.00;57.00
45803;DHT22;31504;51.716;9.184;2023-10-19T05:33:10;19.00;57.00
45803;DHT22;31504;51.716;9.184;2023-10-19T05:36:11;19.00;57.10
45803;DHT22;31504;51.716;9.184;2023-10-19T05:39:12;19.00;57.20
45803;DHT22;31504;51.716;9.184;2023-10-19T05:42:13;19.00;57.40
45803;DHT22;31504;51.716;9.184;2023-10-19T05:45:14;19.00;57.40
45803;DHT22;31504;51.716;9.184;2023-10-19T05:48:16;19.00;57.40
45803;DHT22;31504;51.716;9.184;2023-10-19T05:51:17;19.00;57.50
45803;DHT22;31504;51.716;9.184;2023-10-19T05:54:17;19.00;57.50
45803;DHT22;31504;51.716;9.184;2023-10-19T05:57:18;19.00;57.50
45803;DHT22;31504;51.716;9.184;2023-10-19T06:00:19;19.00;57.50
45803;DHT22;31504;51.716;9.184;2023-10-19T06:03:20;19.00;57.50
45803;DHT22;31504;51.716;9.184;2023-10-19T06:06:21;19.00;57.50
45803;DHT22;31504;51.716;9.184;2023-10-19T06:09:21;19.00;57.50
45803;DHT22;31504;51.716;9.184;2023-10-19T06:12:32;19.00;58.10
45803;DHT22;31504;51.716;9.184;2023-10-19T06:15:32;19.00;57.50
45803;DHT22;31504;51.716;9.184;2023-10-19T06:18:33;19.00;57.50
45803;DHT22;31504;51.716;9.184;2023-10-19T06:21:34;19.00;57.60
45803;DHT22;31504;51.716;9.184;2023-10-19T06:24:34;18.90;57.60
45803;DHT22;31504;51.716;9.184;2023-10-19T06:27:35;19.00;57.60
45803;DHT22;31504;51.716;9.184;2023-10-19T06:30:36;19.00;57.50
45803;DHT22;31504;51.716;9.184;2023-10-19T06:33:37;19.00;57.50
45803;DHT22;31504;51.716;9.184;2023-10-19T06:36:41;19.00;57.80
45803;DHT22;31504;51.716;9.184;2023-10-19T06:39:41;19.00;57.90
45803;DHT22;31504;51.716;9.184;2023-10-19T06:42:42;19.00;57.90
45803;DHT22;31504;51.716;9.184;2023-10-19T06:45:44;19.00;58.00
45803;DHT22;31504;51.716;9.184;2023-10-19T06:48:45;19.00;58.10
45803;DHT22;31504;51.716;9.184;2023-10-19T06:51:45;19.00;58.20
45803;DHT22;31504;51.716;9.184;2023-10-19T06:54:45;19.00;58.30
45803;DHT22;31504;51.716;9.184;2023-10-19T06:57:47;19.00;58.30
45803;DHT22;31504;51.716;9.184;2023-10-19T07:00:48;19.00;58.40
45803;DHT22;31504;51.716;9.184;2023-10-19T07:03:58;19.00;58.30
45803;DHT22;31504;51.716;9.184;2023-10-19T07:06:58;19.00;58.40
45803;DHT22;31504;51.716;9.184;2023-10-19T07:10:01;19.00;58.50
45803;DHT22;31504;51.716;9.184;2023-10-19T07:13:03;19.00;58.40
45803;DHT22;31504;51.716;9.184;2023-10-19T07:16:04;19.00;58.50
45803;DHT22;31504;51.716;9.184;2023-10-19T07:19:04;19.10;58.50
45803;DHT22;31504;51.716;9.184;2023-10-19T07:22:05;19.00;58.50
45803;DHT22;31504;51.716;9.184;2023-10-19T07:25:10;19.10;58.60
45803;DHT22;31504;51.716;9.184;2023-10-19T07:28:12;19.10;58.60
45803;DHT22;31504;51.716;9.184;2023-10-19T07:31:15;19.10;58.60
45803;DHT22;31504;51.716;9.184;2023-10-19T07:34:16;19.10;58.60
45803;DHT22;31504;51.716;9.184;2023-10-19T07:37:16;19.00;58.60
45803;DHT22;31504;51.716;9.184;2023-10-19T07:40:17;19.10;58.60
45803;DHT22;31504;51.716;9.184;2023-10-19T07:43:18;19.00;58.60
45803;DHT22;31504;51.716;9.184;2023-10-19T07:46:20;19.10;59.30
45803;DHT22;31504;51.716;9.184;2023-10-19T07:49:21;19.10;58.70
45803;DHT22;31504;51.716;9.184;2023-10-19T07:52:22;19.10;58.70
45803;DHT22;31504;51.716;9.184;2023-10-19T07:55:23;19.10;58.70
45803;DHT22;31504;51.716;9.184;2023-10-19T07:58:24;19.10;58.70
45803;DHT22;31504;51.716;9.184;2023-10-19T08:01:24;19.10;58.80
45803;DHT22;31504;51.716;9.184;2023-10-19T08:04:25;19.10;58.80
45803;DHT22;31504;51.716;9.184;2023-10-19T08:07:25;19.10;58.80
45803;DHT22;31504;51.716;9.184;2023-10-19T08:10:27;19.10;58.90
45803;DHT22;31504;51.716;9.184;2023-10-19T08:13:28;19.10;58.90
45803;DHT22;31504;51.716;9.184;2023-10-19T08:16:28;19.10;59.00
45803;DHT22;31504;51.716;9.184;2023-10-19T08:19:29;19.10;59.00
45803;DHT22;31504;51.716;9.184;2023-10-19T08:22:31;19.10;59.00
45803;DHT22;31504;51.716;9.184;2023-10-19T08:25:31;19.10;59.10
45803;DHT22;31504;51.716;9.184;2023-10-19T08:28:32;19.10;59.10
45803;DHT22;31504;51.716;9.184;2023-10-19T08:31:33;19.10;59.20
45803;DHT22;31504;51.716;9.184;2023-10-19T08:34:36;19.10;59.30
45803;DHT22;31504;51.716;9.184;2023-10-19T08:37:40;19.10;59.40
45803;DHT22;31504;51.716;9.184;2023-10-19T08:40:40;19.10;59.40
45803;DHT22;31504;51.716;9.184;2023-10-19T08:43:41;19.10;59.50
45803;DHT22;31504;51.716;9.184;2023-10-19T08:46:42;19.10;59.50
45803;DHT22;31504;51.716;9.184;2023-10-19T08:49:47;19.10;59.50
45803;DHT22;31504;51.716;9.184;2023-10-19T08:52:48;19.10;59.40
45803;DHT22;31504;51.716;9.184;2023-10-19T08:55:49;19.10;59.30
45803;DHT22;31504;51.716;9.184;2023-10-19T08:58:50;19.00;59.20
45803;DHT22;31504;51.716;9.184;2023-10-19T09:02:00;19.00;59.20
45803;DHT22;31504;51.716;9.184;2023-10-19T09:05:05;19.00;59.10
45803;DHT22;31504;51.716;9.184;2023-10-19T09:08:06;19.00;59.10
45803;DHT22;31504;51.716;9.184;2023-10-19T09:11:07;19.00;59.10
45803;DHT22;31504;51.716;9.184;2023-10-19T09:14:14;19.00;59.10
45803;DHT22;31504;51.716;9.184;2023-10-19T09:17:27;19.00;59.10
45803;DHT22;31504;51.716;9.184;2023-10-19T09:20:28;19.00;59.00
45803;DHT22;31504;51.716;9.184;2023-10-19T09:23:29;19.00;59.00
45803;DHT22;31504;51.716;9.184;2023-10-19T09:26:29;19.00;59.10
45803;DHT22;31504;51.716;9.184;2023-10-19T09:29:30;19.00;59.20
45803;DHT22;31504;51.716;9.184;2023-10-19T09:32:31;19.00;59.10
45803;DHT22;31504;51.716;9.184;2023-10-19T09:35:34;19.00;59.10
45803;DHT22;31504;51.716;9.184;2023-10-19T09:38:34;19.00;59.00
45803;DHT22;31504;51.716;9.184;2023-10-19T09:41:35;19.00;59.00
45803;DHT22;31504;51.716;9.184;2023-10-19T09:44:40;19.00;59.30
45803;DHT22;31504;51.716;9.184;2023-10-19T09:47:41;19.00;59.50
45803;DHT22;31504;51.716;9.184;2023-10-19T09:50:55;19.00;59.60
45803;DHT22;31504;51.716;9.184;2023-10-19T09:53:58;19.10;59.70
45803;DHT22;31504;51.716;9.184;2023-10-19T09:57:01;19.10;59.90
45803;DHT22;31504;51.716;9.184;2023-10-19T10:00:04;19.10;60.00
45803;DHT22;31504;51.716;9.184;2023-10-19T10:09:51;19.10;60.10
45803;DHT22;31504;51.716;9.184;2023-10-19T10:12:51;19.10;60.10
45803;DHT22;31504;51.716;9.184;2023-10-19T10:15:52;19.10;60.20
45803;DHT22;31504;51.716;9.184;2023-10-19T10:18:59;19.10;60.10
45803;DHT22;31504;51.716;9.184;2023-10-19T10:22:09;19.10;60.30
45803;DHT22;31504;51.716;9.184;2023-10-19T10:25:27;19.20;60.30
45803;DHT22;31504;51.716;9.184;2023-10-19T10:28:31;19.20;60.30
45803;DHT22;31504;51.716;9.184;2023-10-19T10:31:31;19.20;60.30
45803;DHT22;31504;51.716;9.184;2023-10-19T10:37:38;19.20;60.40
45803;DHT22;31504;51.716;9.184;2023-10-19T10:40:48;19.20;60.40
45803;DHT22;31504;51.716;9.184;2023-10-19T10:43:55;19.20;60.40
45803;DHT22;31504;51.716;9.184;2023-10-19T10:46:56;19.20;60.40
45803;DHT22;31504;51.716;9.184;2023-10-19T10:49:57;19.20;60.40
45803;DHT22;31504;51.716;9.184;2023-10-19T10:52:58;19.20;60.40
45803;DHT22;31504;51.716;9.184;2023-10-19T10:56:00;19.20;61.10
45803;DHT22;31504;51.716;9.184;2023-10-19T10:59:11;19.20;60.50
45803;DHT22;31504;51.716;9.184;2023-10-19T11:02:18;19.20;60.50
45803;DHT22;31504;51.716;9.184;2023-10-19T11:05:20;19.20;60.70
45803;DHT22;31504;51.716;9.184;2023-10-19T11:08:23;19.20;60.70
45803;DHT22;31504;51.716;9.184;2023-10-19T11:11:24;19.10;60.60
45803;DHT22;31504;51.716;9.184;2023-10-19T11:14:24;19.20;60.80
45803;DHT22;31504;51.716;9.184;2023-10-19T11:17:26;19.20;60.80
45803;DHT22;31504;51.716;9.184;2023-10-19T11:20:30;19.20;60.90
45803;DHT22;31504;51.716;9.184;2023-10-19T11:23:34;19.20;60.80
45803;DHT22;31504;51.716;9.184;2023-10-19T11:26:39;19.20;61.50
45803;DHT22;31504;51.716;9.184;2023-10-19T11:29:52;19.20;60.90
45803;DHT22;31504;51.716;9.184;2023-10-19T11:32:53;19.20;60.90
45803;DHT22;31504;51.716;9.184;2023-10-19T11:35:57;19.20;61.50
45803;DHT22;31504;51.716;9.184;2023-10-19T11:38:57;19.20;60.90
45803;DHT22;31504;51.716;9.184;2023-10-19T11:41:58;19.20;61.00
45803;DHT22;31504;51.716;9.184;2023-10-19T11:44:58;19.20;61.00
45803;DHT22;31504;51.716;9.184;2023-10-19T11:47:59;19.20;61.60
45803;DHT22;31504;51.716;9.184;2023-10-19T11:51:00;19.20;61.00
45803;DHT22;31504;51.716;9.184;2023-10-19T11:54:06;19.20;61.00
45803;DHT22;31504;51.716;9.184;2023-10-19T11:57:06;19.20;61.00
45803;DHT22;31504;51.716;9.184;2023-10-19T12:00:07;19.20;61.10
45803;DHT22;31504;51.716;9.184;2023-10-19T12:03:13;19.20;61.10
45803;DHT22;31504;51.716;9.184;2023-10-19T12:06:15;19.20;61.10
45803;DHT22;31504;51.716;9.184;2023-10-19T12:09:23;19.20;61.20
45803;DHT22;31504;51.716;9.184;2023-10-19T12:12:24;19.20;61.30
45803;DHT22;31504;51.716;9.184;2023-10-19T12:15:25;19.20;61.70
45803;DHT22;31504;51.716;9.184;2023-10-19T12:18:26;19.20;62.00
45803;DHT22;31504;51.716;9.184;2023-10-19T12:21:27;19.20;62.80
45803;DHT22;31504;51.716;9.184;2023-10-19T12:24:28;19.20;63.40
45803;DHT22;31504;51.716;9.184;2023-10-19T12:27:29;19.20;63.90
45803;DHT22;31504;51.716;9.184;2023-10-19T12:30:30;19.20;64.30
45803;DHT22;31504;51.716;9.184;2023-10-19T12:33:37;19.20;64.50
45803;DHT22;31504;51.716;9.184;2023-10-19T12:36:38;19.20;64.70
45803;DHT22;31504;51.716;9.184;2023-10-19T12:39:39;19.20;65.10
45803;DHT22;31504;51.716;9.184;2023-10-19T12:42:49;19.20;65.10
45803;DHT22;31504;51.716;9.184;2023-10-19T12:45:51;19.20;65.30
45803;DHT22;31504;51.716;9.184;2023-10-19T12:48:53;19.20;65.60
45803;DHT22;31504;51.716;9.184;2023-10-19T12:51:58;19.20;65.80
45803;DHT22;31504;51.716;9.184;2023-10-19T12:55:01;19.20;65.80
45803;DHT22;31504;51.716;9.184;2023-10-19T12:58:04;19.20;66.00
45803;DHT22;31504;51.716;9.184;2023-10-19T13:01:09;19.20;66.30
45803;DHT22;31504;51.716;9.184;2023-10-19T13:04:16;19.20;66.50
45803;DHT22;31504;51.716;9.184;2023-10-19T13:07:18;19.20;66.80
45803;DHT22;31504;51.716;9.184;2023-10-19T13:10:20;19.20;67.30
45803;DHT22;31504;51.716;9.184;2023-10-19T13:13:20;19.20;67.10
45803;DHT22;31504;51.716;9.184;2023-10-19T13:16:24;19.10;67.60
45803;DHT22;31504;51.716;9.184;2023-10-19T13:19:25;19.10;67.70
45803;DHT22;31504;51.716;9.184;2023-10-19T13:22:26;19.10;67.70
45803;DHT22;31504;51.716;9.184;2023-10-19T13:25:27;19.10;67.50
45803;DHT22;31504;51.716;9.184;2023-10-19T13:28:41;19.20;67.30
45803;DHT22;31504;51.716;9.184;2023-10-19T13:31:42;19.20;67.10
45803;DHT22;31504;51.716;9.184;2023-10-19T13:34:49;19.20;67.60
45803;DHT22;31504;51.716;9.184;2023-10-19T13:37:49;19.20;66.90
45803;DHT22;31504;51.716;9.184;2023-10-19T13:40:50;19.20;66.80
45803;DHT22;31504;51.716;9.184;2023-10-19T13:43:51;19.20;68.20
45803;DHT22;31504;51.716;9.184;2023-10-19T13:46:51;19.10;70.50
45803;DHT22;31504;51.716;9.184;2023-10-19T13:49:54;19.00;71.50
45803;DHT22;31504;51.716;9.184;2023-10-19T13:52:54;18.90;72.60
45803;DHT22;31504;51.716;9.184;2023-10-19T13:55:56;18.90;72.60
45803;DHT22;31504;51.716;9.184;2023-10-19T13:58:57;18.90;73.10
45803;DHT22;31504;51.716;9.184;2023-10-19T14:01:57;18.80;73.60
45803;DHT22;31504;51.716;9.184;2023-10-19T14:04:59;18.80;73.60
45803;DHT22;31504;51.716;9.184;2023-10-19T14:08:00;18.80;73.80
45803;DHT22;31504;51.716;9.184;2023-10-19T14:11:01;18.80;73.50
45803;DHT22;31504;51.716;9.184;2023-10-19T14:14:03;18.80;73.20
45803;DHT22;31504;51.716;9.184;2023-10-19T14:17:03;18.80;73.70
45803;DHT22;31504;51.716;9.184;2023-10-19T14:20:05;18.80;73.70
45803;DHT22;31504;51.716;9.184;2023-10-19T14:23:06;18.70;74.00
45803;DHT22;31504;51.716;9.184;2023-10-19T14:26:06;18.70;73.90
45803;DHT22;31504;51.716;9.184;2023-10-19T14:29:07;18.70;74.10
45803;DHT22;31504;51.716;9.184;2023-10-19T14:32:07;18.70;74.10
45803;DHT22;31504;51.716;9.184;2023-10-19T14:35:11;18.70;73.70
45803;DHT22;31504;51.716;9.184;2023-10-19T14:38:11;18.70;74.10
45803;DHT22;31504;51.716;9.184;2023-10-19T14:41:14;18.70;74.70
45803;DHT22;31504;51.716;9.184;2023-10-19T14:44:15;18.60;74.90
45803;DHT22;31504;51.716;9.184;2023-10-19T14:47:16;18.60;75.20
45803;DHT22;31504;51.716;9.184;2023-10-19T14:50:16;18.60;75.40
45803;DHT22;31504;51.716;9.184;2023-10-19T14:53:18;18.60;75.50
45803;DHT22;31504;51.716;9.184;2023-10-19T14:56:18;18.70;76.50
45803;DHT22;31504;51.716;9.184;2023-10-19T14:59:19;18.70;76.60
45803;DHT22;31504;51.716;9.184;2023-10-19T15:02:19;18.70;77.70
45803;DHT22;31504;51.716;9.184;2023-10-19T15:05:23;18.70;77.30
45803;DHT22;31504;51.716;9.184;2023-10-19T15:08:27;18.70;76.80
45803;DHT22;31504;51.716;9.184;2023-10-19T15:11:31;18.70;77.20
45803;DHT22;31504;51.716;9.184;2023-10-19T15:14:31;18.90;76.80
45803;DHT22;31504;51.716;9.184;2023-10-19T15:17:32;19.00;76.10
45803;DHT22;31504;51.716;9.184;2023-10-19T15:20:32;19.00;75.60
45803;DHT22;31504;51.716;9.184;2023-10-19T15:23:33;19.10;75.10
45803;DHT22;31504;51.716;9.184;2023-10-19T15:26:34;19.10;74.60
45803;DHT22;31504;51.716;9.184;2023-10-19T15:29:34;19.20;74.30
45803;DHT22;31504;51.716;9.184;2023-10-19T15:32:35;19.20;73.90
45803;DHT22;31504;51.716;9.184;2023-10-19T15:35:35;19.20;73.70
45803;DHT22;31504;51.716;9.184;2023-10-19T15:38:37;19.20;73.40
45803;DHT22;31504;51.716;9.184;2023-10-19T15:41:38;19.20;73.10
45803;DHT22;31504;51.716;9.184;2023-10-19T15:44:38;19.20;72.80
45803;DHT22;31504;51.716;9.184;2023-10-19T15:47:39;19.20;72.50
45803;DHT22;31504;51.716;9.184;2023-10-19T15:50:40;19.30;72.30
45803;DHT22;31504;51.716;9.184;2023-10-19T15:53:43;19.20;72.00
45803;DHT22;31504;51.716;9.184;2023-10-19T15:56:45;19.30;71.90
45803;DHT22;31504;51.716;9.184;2023-10-19T15:59:45;19.30;71.80
45803;DHT22;31504;51.716;9.184;2023-10-19T16:02:46;19.30;71.60
45803;DHT22;31504;51.716;9.184;2023-10-19T16:05:47;19.30;71.50
45803;DHT22;31504;51.716;9.184;2023-10-19T16:08:47;19.30;71.30
45803;DHT22;31504;51.716;9.184;2023-10-19T16:11:48;19.30;71.30
45803;DHT22;31504;51.716;9.184;2023-10-19T16:14:51;19.30;71.20
45803;DHT22;31504;51.716;9.184;2023-10-19T16:17:51;19.30;70.90
45803;DHT22;31504;51.716;9.184;2023-10-19T16:20:51;19.30;70.80
45803;DHT22;31504;51.716;9.184;2023-10-19T16:23:52;19.30;70.70
45803;DHT22;31504;51.716;9.184;2023-10-19T16:26:53;19.40;70.70
45803;DHT22;31504;51.716;9.184;2023-10-19T16:29:56;19.30;70.50
45803;DHT22;31504;51.716;9.184;2023-10-19T16:32:57;19.30;70.40
45803;DHT22;31504;51.716;9.184;2023-10-19T16:35:58;19.40;70.30
45803;DHT22;31504;51.716;9.184;2023-10-19T16:38:58;19.40;70.30
45803;DHT22;31504;51.716;9.184;2023-10-19T16:41:59;19.40;70.10
45803;DHT22;31504;51.716;9.184;2023-10-19T16:45:01;19.30;70.00
45803;DHT22;31504;51.716;9.184;2023-10-19T16:48:05;19.30;70.00
45803;DHT22;31504;51.716;9.184;2023-10-19T16:51:06;19.30;69.90
45803;DHT22;31504;51.716;9.184;2023-10-19T16:54:07;19.30;69.70
45803;DHT22;31504;51.716;9.184;2023-10-19T16:57:08;19.40;69.60
45803;DHT22;31504;51.716;9.184;2023-10-19T17:00:09;19.30;69.40
45803;DHT22;31504;51.716;9.184;2023-10-19T17:03:13;19.30;69.30
45803;DHT22;31504;51.716;9.184;2023-10-19T17:06:14;19.40;69.40
45803;DHT22;31504;51.716;9.184;2023-10-19T17:09:18;19.40;69.20
45803;DHT22;31504;51.716;9.184;2023-10-19T17:12:20;19.40;69.30
45803;DHT22;31504;51.716;9.184;2023-10-19T17:15:20;19.40;69.30
45803;DHT22;31504;51.716;9.184;2023-10-19T17:18:22;19.40;69.20
45803;DHT22;31504;51.716;9.184;2023-10-19T17:21:22;19.40;69.20
45803;DHT22;31504;51.716;9.184;2023-10-19T17:24:23;19.40;69.20
45803;DHT22;31504;51.716;9.184;2023-10-19T17:27:24;19.40;69.20
45803;DHT22;31504;51.716;9.184;2023-10-19T17:30:24;19.40;69.20
45803;DHT22;31504;51.716;9.184;2023-10-19T17:33:24;19.40;69.10
45803;DHT22;31504;51.716;9.184;2023-10-19T17:36:26;19.40;69.10
45803;DHT22;31504;51.716;9.184;2023-10-19T17:39:26;19.40;69.00
45803;DHT22;31504;51.716;9.184;2023-10-19T17:42:29;19.50;69.10
45803;DHT22;31504;51.716;9.184;2023-10-19T17:45:29;19.50;69.00
45803;DHT22;31504;51.716;9.184;2023-10-19T17:48:30;19.50;69.00
45803;DHT22;31504;51.716;9.184;2023-10-19T17:51:31;19.50;69.10
45803;DHT22;31504;51.716;9.184;2023-10-19T17:54:31;19.50;69.00
45803;DHT22;31504;51.716;9.184;2023-10-19T17:57:32;19.50;69.00
45803;DHT22;31504;51.716;9.184;2023-10-19T18:00:36;19.50;69.00
45803;DHT22;31504;51.716;9.184;2023-10-19T18:03:37;19.50;68.80
45803;DHT22;31504;51.716;9.184;2023-10-19T18:06:38;19.50;68.80
45803;DHT22;31504;51.716;9.184;2023-10-19T18:09:40;19.50;68.60
45803;DHT22;31504;51.716;9.184;2023-10-19T18:12:44;19.50;68.40
45803;DHT22;31504;51.716;9.184;2023-10-19T18:15:45;19.40;68.20
45803;DHT22;31504;51.716;9.184;2023-10-19T18:18:48;19.40;67.90
45803;DHT22;31504;51.716;9.184;2023-10-19T18:21:49;19.40;67.70
45803;DHT22;31504;51.716;9.184;2023-10-19T18:24:53;19.40;67.40
45803;DHT22;31504;51.716;9.184;2023-10-19T18:27:53;19.40;67.40
45803;DHT22;31504;51.716;9.184;2023-10-19T18:30:55;19.50;67.40
45803;DHT22;31504;51.716;9.184;2023-10-19T18:33:56;19.50;67.50
45803;DHT22;31504;51.716;9.184;2023-10-19T18:36:59;19.50;67.50
45803;DHT22;31504;51.716;9.184;2023-10-19T18:40:02;19.40;67.40
45803;DHT22;31504;51.716;9.184;2023-10-19T18:43:03;19.50;67.40
45803;DHT22;31504;51.716;9.184;2023-10-19T18:46:03;19.40;67.70
45803;DHT22;31504;51.716;9.184;2023-10-19T18:49:04;19.40;67.60
45803;DHT22;31504;51.716;9.184;2023-10-19T18:52:05;19.50;67.60
45803;DHT22;31504;51.716;9.184;2023-10-19T18:55:07;19.40;67.70
45803;DHT22;31504;51.716;9.184;2023-10-19T18:58:08;19.50;67.50
45803;DHT22;31504;51.716;9.184;2023-10-19T19:01:08;19.50;67.50
45803;DHT22;31504;51.716;9.184;2023-10-19T19:04:09;19.50;67.50
45803;DHT22;31504;51.716;9.184;2023-10-19T19:07:09;19.50;68.10
45803;DHT22;31504;51.716;9.184;2023-10-19T19:10:10;19.50;67.40
45803;DHT22;31504;51.716;9.184;2023-10-19T19:13:11;19.50;67.50
45803;DHT22;31504;51.716;9.184;2023-10-19T19:16:11;19.50;67.50
45803;DHT22;31504;51.716;9.184;2023-10-19T19:19:12;19.50;67.60